TimeMST,TemperatureF,Dew PointF,Humidity,Sea Level PressureIn,VisibilityMPH,Wind Direction,Wind SpeedMPH,Gust SpeedMPH,PrecipitationIn,Events,Conditions,WindDirDegrees,DateUTC
12:53 AM,30.0,9.0,41,29.91,10.0,North,19.6,36.8,N/A,,Overcast,350,2012-12-09 07:53:00
1:53 AM,27.0,10.9,51,29.94,10.0,North,15.0,26.5,N/A,,Overcast,350,2012-12-09 08:53:00
2:53 AM,25.0,9.0,51,29.96,10.0,North,17.3,23.0,N/A,,Overcast,350,2012-12-09 09:53:00
3:53 AM,24.1,8.1,51,29.99,10.0,North,17.3,24.2,N/A,,Overcast,350,2012-12-09 10:53:00
4:53 AM,23.0,6.1,48,30.03,10.0,North,23.0,32.2,N/A,,Overcast,350,2012-12-09 11:53:00
5:53 AM,21.0,6.1,53,30.06,10.0,NNW,23.0,34.5,N/A,,Overcast,340,2012-12-09 12:53:00
6:53 AM,19.0,6.1,57,30.08,10.0,North,20.7,28.8,N/A,,Overcast,350,2012-12-09 13:53:00
7:53 AM,18.0,3.9,54,30.12,10.0,NNW,25.3,34.5,N/A,,Overcast,340,2012-12-09 14:53:00
8:53 AM,17.1,3.9,56,30.17,10.0,NNW,24.2,36.8,N/A,,Mostly Cloudy,340,2012-12-09 15:53:00
9:53 AM,17.1,3.9,56,30.19,10.0,NNW,23.0,39.1,N/A,,Mostly Cloudy,340,2012-12-09 16:53:00
10:53 AM,19.9,3.9,50,30.18,10.0,North,28.8,40.3,N/A,,Clear,350,2012-12-09 17:53:00
11:53 AM,21.0,3.9,48,30.17,10.0,NNW,27.6,38.0,N/A,,Clear,340,2012-12-09 18:53:00
12:53 PM,23.0,3.0,42,30.16,10.0,North,23.0,34.5,N/A,,Clear,350,2012-12-09 19:53:00
1:53 PM,21.9,1.9,42,30.19,10.0,North,21.9,31.1,N/A,,Clear,360,2012-12-09 20:53:00
2:53 PM,21.0,1.0,42,30.22,10.0,North,26.5,38.0,N/A,,Clear,350,2012-12-09 21:53:00
3:53 PM,19.9,1.0,44,30.24,10.0,North,23.0,31.1,N/A,,Clear,360,2012-12-09 22:53:00
4:53 PM,17.1,1.0,50,30.28,10.0,North,12.7,21.9,N/A,,Clear,360,2012-12-09 23:53:00
5:53 PM,15.1,1.0,54,30.30,10.0,North,16.1,-,N/A,,Clear,360,2012-12-10 00:53:00
6:53 PM,12.9,-0.0,56,30.33,10.0,North,9.2,-,N/A,,Clear,350,2012-12-10 01:53:00
7:53 PM,9.0,-0.9,64,30.35,10.0,NNW,6.9,-,N/A,,Clear,340,2012-12-10 02:53:00
8:53 PM,3.9,-4.0,70,30.36,10.0,NW,6.9,-,N/A,,Clear,320,2012-12-10 03:53:00
9:53 PM,-0.0,-7.1,72,30.34,10.0,WSW,4.6,-,N/A,,Clear,250,2012-12-10 04:53:00
10:53 PM,-0.9,-7.1,75,30.33,10.0,WSW,9.2,-,N/A,,Clear,240,2012-12-10 05:53:00
11:53 PM,1.0,-6.0,72,30.29,10.0,WSW,9.2,-,N/A,,Clear,250,2012-12-10 06:53:00